createdAt,value
2019-04-22T00:00:39.231Z,13.27
2019-04-22T00:01:38.218Z,13.33
2019-04-22T00:02:43.571Z,13.37
2019-04-22T00:03:45.518Z,13.30
2019-04-22T00:04:53.637Z,13.42
2019-04-22T00:05:56.179Z,13.25
2019-04-22T00:06:59.786Z,13.27
2019-04-22T00:08:03.846Z,13.23
2019-04-22T00:09:02.224Z,13.13
2019-04-22T00:10:09.651Z,13.13
2019-04-22T00:11:07.927Z,13.13
2019-04-22T00:12:11.220Z,13.22
2019-04-22T00:13:02.926Z,13.09
2019-04-22T00:15:55.973Z,13.00
2019-04-22T00:17:07.073Z,13.00
2019-04-22T00:20:04.338Z,13.00
2019-04-22T00:21:04.694Z,12.97
2019-04-22T00:22:03.334Z,13.00
2019-04-22T00:22:57.395Z,13.01
2019-04-22T00:23:59.735Z,12.98
2019-04-22T00:25:00.061Z,12.94
2019-04-22T00:26:01.912Z,12.98
2019-04-22T00:27:13.768Z,12.90
2019-04-22T00:28:02.403Z,12.93
2019-04-22T00:29:21.115Z,13.01
2019-04-22T00:30:54.829Z,12.91
2019-04-22T00:31:58.950Z,12.86
2019-04-22T00:32:57.190Z,12.79
2019-04-22T00:33:58.888Z,12.91
2019-04-22T00:34:53.534Z,12.94
2019-04-22T00:35:54.895Z,12.83
2019-04-22T00:36:56.975Z,12.90
2019-04-22T00:38:08.967Z,12.75
2019-04-22T00:39:03.450Z,12.78
2019-04-22T00:39:58.445Z,12.73
2019-04-22T00:41:00.541Z,12.78
2019-04-22T00:42:58.752Z,12.76
2019-04-22T00:44:08.800Z,12.80
2019-04-22T00:45:03.248Z,12.78
2019-04-22T00:45:55.735Z,12.76
2019-04-22T00:47:00.640Z,12.72
2019-04-22T00:48:01.008Z,12.70
2019-04-22T00:49:48.590Z,12.79
2019-04-22T00:51:06.141Z,12.73
2019-04-22T00:52:04.960Z,12.72
2019-04-22T00:53:03.882Z,12.75
2019-04-22T00:53:54.561Z,12.70
2019-04-22T00:55:01.902Z,12.57
2019-04-22T00:55:56.914Z,12.58
2019-04-22T00:56:57.171Z,12.57
2019-04-22T00:57:54.224Z,12.53
2019-04-22T00:58:50.278Z,12.54
2019-04-22T01:00:01.754Z,12.54
2019-04-22T01:00:54.584Z,12.50
2019-04-22T01:02:01.937Z,12.53
2019-04-22T01:03:02.756Z,12.49
2019-04-22T01:04:53.589Z,12.49
2019-04-22T01:05:57.097Z,12.47
2019-04-22T01:06:51.619Z,12.49
2019-04-22T01:08:03.998Z,12.46
2019-04-22T01:08:57.787Z,12.43
2019-04-22T01:09:58.679Z,12.53
2019-04-22T01:10:54.024Z,12.45
2019-04-22T01:11:56.281Z,12.45
2019-04-22T01:12:54.595Z,12.45
2019-04-22T01:13:57.760Z,12.42
2019-04-22T01:14:55.066Z,12.36
2019-04-22T01:16:01.503Z,12.32
2019-04-22T01:16:57.851Z,12.39
2019-04-22T01:17:56.283Z,12.39
2019-04-22T01:18:53.786Z,12.40
2019-04-22T01:20:02.420Z,12.42
2019-04-22T01:21:12.639Z,12.39
2019-04-22T01:21:49.807Z,12.31
2019-04-22T01:22:56.936Z,12.32
2019-04-22T01:23:53.312Z,12.22
2019-04-22T01:24:50.303Z,12.24
2019-04-22T01:25:46.471Z,12.20
2019-04-22T01:26:43.521Z,12.20
2019-04-22T01:27:46.318Z,12.18
2019-04-22T01:28:43.449Z,12.20
2019-04-22T01:29:42.332Z,12.18
2019-04-22T01:30:38.136Z,12.09
2019-04-22T01:31:31.453Z,12.12
2019-04-22T01:32:37.097Z,12.13
2019-04-22T01:33:35.354Z,12.10
2019-04-22T01:34:40.501Z,11.99
2019-04-22T01:35:41.169Z,12.03
2019-04-22T01:36:47.415Z,11.97
2019-04-22T01:37:45.677Z,11.84
2019-04-22T01:38:51.504Z,11.86
2019-04-22T01:39:50.341Z,11.88
2019-04-22T01:40:55.615Z,11.84
2019-04-22T01:41:59.799Z,11.84
2019-04-22T01:42:57.570Z,11.86
2019-04-22T01:43:58.726Z,11.83
2019-04-22T01:44:50.910Z,11.78
2019-04-22T01:45:53.207Z,11.75
2019-04-22T01:46:50.830Z,11.70
2019-04-22T01:47:49.308Z,11.80
2019-04-22T01:48:57.187Z,11.75
2019-04-22T01:49:55.512Z,11.69
2019-04-22T01:50:50.212Z,11.73
2019-04-22T01:52:01.800Z,11.68
2019-04-22T01:52:53.163Z,11.77
2019-04-22T01:53:58.519Z,11.68
2019-04-22T01:55:15.824Z,11.70
2019-04-22T01:55:52.207Z,11.73
2019-04-22T01:56:53.988Z,11.75
2019-04-22T01:57:47.806Z,11.73
2019-04-22T01:58:44.285Z,11.69
2019-04-22T01:59:44.295Z,11.73
2019-04-22T02:00:56.127Z,11.73
2019-04-22T02:01:53.555Z,11.75
2019-04-22T02:02:48.788Z,11.70
2019-04-22T02:03:54.487Z,11.63
2019-04-22T02:04:51.680Z,11.63
2019-04-22T02:05:50.777Z,11.60
2019-04-22T02:06:48.621Z,11.60
2019-04-22T02:07:50.290Z,11.57
2019-04-22T02:08:52.725Z,11.69
2019-04-22T02:09:49.595Z,11.59
2019-04-22T02:11:57.196Z,11.66
2019-04-22T02:12:58.587Z,11.60
2019-04-22T02:13:49.495Z,11.60
2019-04-22T02:15:53.827Z,11.59
2019-04-22T02:16:54.060Z,11.55
2019-04-22T02:17:56.265Z,11.51
2019-04-22T02:18:58.028Z,11.47
2019-04-22T02:19:53.393Z,11.44
2019-04-22T02:20:48.810Z,11.37
2019-04-22T02:21:51.536Z,11.40
2019-04-22T02:23:00.763Z,11.36
2019-04-22T02:25:49.717Z,11.32
2019-04-22T02:27:02.534Z,11.26
2019-04-22T02:28:00.777Z,11.26
2019-04-22T02:29:04.666Z,11.14
2019-04-22T02:29:47.758Z,11.12
2019-04-22T02:31:15.974Z,10.99
2019-04-22T02:31:52.254Z,10.94
2019-04-22T02:33:21.844Z,11.08
2019-04-22T02:35:01.985Z,11.14
2019-04-22T02:36:08.251Z,11.17
2019-04-22T02:36:54.798Z,11.30
2019-04-22T02:37:45.526Z,11.32
2019-04-22T02:41:13.520Z,11.30
2019-04-22T02:41:49.589Z,11.27
2019-04-22T02:42:51.670Z,11.30
2019-04-22T02:46:06.643Z,11.32
2019-04-22T02:47:04.427Z,11.30
2019-04-22T02:47:50.605Z,11.29
2019-04-22T02:49:11.776Z,11.30
2019-04-22T02:50:55.010Z,11.30
2019-04-22T02:51:49.215Z,11.25
2019-04-22T02:52:50.376Z,11.22
2019-04-22T02:54:55.165Z,11.08
2019-04-22T02:56:12.153Z,11.08
2019-04-22T02:59:04.181Z,11.29
2019-04-22T03:03:01.044Z,11.07
2019-04-22T03:04:01.256Z,11.12
2019-04-22T03:04:47.276Z,11.14
2019-04-22T03:05:56.652Z,11.18
2019-04-22T03:06:43.727Z,11.19
2019-04-22T03:07:56.115Z,11.22
2019-04-22T03:09:49.512Z,11.23
2019-04-22T03:12:04.466Z,11.32
2019-04-22T03:12:41.268Z,11.30
2019-04-22T03:15:52.909Z,11.19
2019-04-22T03:16:46.962Z,11.15
2019-04-22T03:17:49.441Z,11.22
2019-04-22T03:18:55.283Z,11.17
2019-04-22T03:20:50.327Z,11.15
2019-04-22T03:21:51.936Z,11.08
2019-04-22T03:22:49.670Z,11.15
2019-04-22T03:23:56.405Z,11.08
2019-04-22T03:24:54.371Z,11.11
2019-04-22T03:26:48.944Z,11.05
2019-04-22T03:27:38.763Z,11.04
2019-04-22T03:30:00.448Z,11.04
2019-04-22T03:34:15.535Z,11.15
2019-04-22T03:35:19.118Z,11.14
2019-04-22T03:39:59.320Z,11.08
2019-04-22T03:40:52.669Z,11.10
2019-04-22T03:42:02.523Z,11.18
2019-04-22T03:42:56.265Z,11.05
2019-04-22T03:43:54.246Z,11.10
2019-04-22T03:45:37.800Z,11.00
2019-04-22T03:46:57.454Z,11.04
2019-04-22T03:47:53.697Z,11.08
2019-04-22T03:48:52.760Z,10.97
2019-04-22T03:50:04.653Z,10.99
2019-04-22T03:50:36.873Z,10.93
2019-04-22T03:52:44.549Z,10.87
2019-04-22T03:53:56.519Z,11.02
2019-04-22T03:55:00.761Z,10.89
2019-04-22T03:55:44.414Z,10.87
2019-04-22T03:57:17.825Z,10.92
2019-04-22T03:58:51.133Z,10.97
2019-04-22T03:59:57.284Z,10.99
2019-04-22T04:01:59.343Z,10.93
2019-04-22T04:03:55.239Z,10.94
2019-04-22T04:07:01.772Z,10.92
2019-04-22T04:07:47.499Z,10.94
2019-04-22T04:09:04.710Z,10.89
2019-04-22T04:10:40.089Z,10.84
2019-04-22T04:13:54.306Z,10.94
2019-04-22T04:14:47.190Z,10.99
2019-04-22T04:15:36.440Z,11.10
2019-04-22T04:16:49.865Z,11.29
2019-04-22T04:17:44.180Z,11.45
2019-04-22T04:18:47.274Z,11.60
2019-04-22T04:19:56.720Z,11.68
2019-04-22T04:20:44.779Z,11.83
2019-04-22T04:21:41.824Z,11.91
2019-04-22T04:24:03.327Z,12.21
2019-04-22T04:25:46.694Z,12.25
2019-04-22T04:27:03.762Z,12.17
2019-04-22T04:28:50.377Z,12.45
2019-04-22T04:31:40.950Z,12.73
2019-04-22T04:33:51.817Z,12.87
2019-04-22T04:35:05.345Z,12.86
2019-04-22T04:36:01.945Z,12.85
2019-04-22T04:36:42.201Z,13.04
2019-04-22T04:38:45.732Z,13.38
2019-04-22T04:39:51.185Z,13.57
2019-04-22T04:42:53.672Z,13.72
2019-04-22T04:43:50.533Z,13.54
2019-04-22T04:44:59.338Z,13.63
2019-04-22T04:46:51.609Z,13.74
2019-04-22T04:48:51.194Z,13.67
2019-04-22T04:49:45.634Z,13.78
2019-04-22T04:50:38.299Z,13.68
2019-04-22T04:51:38.474Z,13.74
2019-04-22T04:52:50.903Z,13.70
2019-04-22T04:53:33.609Z,13.71
2019-04-22T04:54:48.438Z,14.00
2019-04-22T04:58:56.498Z,14.11
2019-04-22T04:59:57.909Z,14.07
2019-04-22T05:00:48.170Z,13.86
2019-04-22T05:03:58.088Z,14.05
2019-04-22T05:04:53.280Z,14.03
2019-04-22T05:05:40.691Z,14.33
2019-04-22T05:06:43.262Z,14.28
2019-04-22T05:09:03.782Z,14.55
2019-04-22T05:09:53.177Z,14.73
2019-04-22T05:11:49.960Z,14.72
2019-04-22T05:12:51.866Z,14.81
2019-04-22T05:13:49.307Z,14.63
2019-04-22T05:14:32.429Z,14.81
2019-04-22T05:15:33.447Z,14.40
2019-04-22T05:18:42.569Z,14.44
2019-04-22T05:20:44.809Z,14.79
2019-04-22T05:22:38.110Z,14.89
2019-04-22T05:23:39.368Z,14.79
2019-04-22T05:24:40.127Z,14.82
2019-04-22T05:25:28.342Z,14.77
2019-04-22T05:26:35.524Z,14.51
2019-04-22T05:27:41.198Z,14.29
2019-04-22T05:28:33.472Z,14.45
2019-04-22T05:29:42.130Z,14.37
2019-04-22T05:31:33.932Z,14.65
2019-04-22T05:32:31.015Z,14.81
2019-04-22T05:33:27.513Z,14.84
2019-04-22T05:34:31.854Z,14.82
2019-04-22T05:36:29.613Z,14.65
2019-04-22T05:37:27.267Z,14.63
2019-04-22T05:38:38.406Z,14.92
2019-04-22T05:39:21.561Z,15.25
2019-04-22T05:40:32.563Z,15.18
2019-04-22T05:41:30.674Z,15.09
2019-04-22T05:42:22.869Z,15.28
2019-04-22T05:43:27.421Z,15.27
2019-04-22T05:44:37.382Z,15.24
2019-04-22T05:45:40.521Z,14.85
2019-04-22T05:46:32.381Z,14.91
2019-04-22T05:47:30.759Z,14.89
2019-04-22T05:48:33.097Z,15.39
2019-04-22T05:49:25.403Z,15.22
2019-04-22T05:50:24.059Z,15.21
2019-04-22T05:51:31.370Z,15.00
2019-04-22T05:52:26.885Z,14.99
2019-04-22T05:53:31.229Z,14.66
2019-04-22T05:54:29.029Z,14.89
2019-04-22T05:56:34.275Z,14.99
2019-04-22T05:57:23.351Z,14.92
2019-04-22T05:58:29.352Z,14.89
2019-04-22T05:59:28.801Z,15.09
2019-04-22T06:00:37.066Z,15.17
2019-04-22T06:02:36.059Z,15.15
2019-04-22T06:03:23.519Z,15.17
2019-04-22T06:04:25.541Z,15.51
2019-04-22T06:05:24.937Z,15.57
2019-04-22T06:06:35.539Z,15.73
2019-04-22T06:07:26.764Z,15.67
2019-04-22T06:08:23.378Z,15.19
2019-04-22T06:09:24.767Z,15.02
2019-04-22T06:10:29.587Z,15.00
2019-04-22T06:11:25.612Z,15.24
2019-04-22T06:12:20.934Z,15.39
2019-04-22T06:13:18.033Z,15.73
2019-04-22T06:14:22.977Z,15.92
2019-04-22T06:15:23.402Z,15.27
2019-04-22T06:16:25.912Z,15.36
2019-04-22T06:17:24.817Z,15.51
2019-04-22T06:19:38.200Z,16.21
2019-04-22T06:20:25.228Z,15.86
2019-04-22T06:21:28.214Z,15.47
2019-04-22T06:22:34.287Z,15.59
2019-04-22T06:23:32.589Z,15.37
2019-04-22T06:24:27.619Z,15.43
2019-04-22T06:25:27.987Z,15.25
2019-04-22T06:26:31.250Z,15.70
2019-04-22T06:28:26.764Z,15.97
2019-04-22T06:30:29.142Z,16.29
2019-04-22T06:31:28.152Z,15.65
2019-04-22T06:32:28.149Z,16.12
2019-04-22T06:33:37.504Z,16.33
2019-04-22T06:34:22.379Z,16.75
2019-04-22T06:35:32.515Z,16.35
2019-04-22T06:36:25.575Z,16.26
2019-04-22T06:37:23.515Z,16.56
2019-04-22T06:39:28.115Z,16.49
2019-04-22T06:40:27.531Z,16.75
2019-04-22T06:42:21.779Z,17.08
2019-04-22T06:43:25.879Z,17.04
2019-04-22T06:44:24.116Z,17.44
2019-04-22T06:45:23.462Z,17.39
2019-04-22T06:46:20.460Z,17.51
2019-04-22T06:47:37.946Z,17.59
2019-04-22T06:49:29.062Z,16.72
2019-04-22T06:50:26.117Z,16.84
2019-04-22T06:51:20.107Z,16.60
2019-04-22T06:52:19.613Z,16.61
2019-04-22T06:53:25.027Z,16.96
2019-04-22T06:54:22.043Z,17.16
2019-04-22T06:55:22.913Z,17.22
2019-04-22T06:56:15.867Z,17.04
2019-04-22T06:57:19.651Z,16.39
2019-04-22T06:58:36.726Z,16.72
2019-04-22T06:59:19.035Z,16.56
2019-04-22T07:00:17.470Z,16.87
2019-04-22T07:01:37.170Z,17.08
2019-04-22T07:02:30.608Z,17.63
2019-04-22T07:04:19.744Z,17.60
2019-04-22T07:05:21.743Z,17.29
2019-04-22T07:06:31.708Z,17.49
2019-04-22T07:07:20.143Z,17.36
2019-04-22T07:08:45.673Z,17.48
2019-04-22T07:10:30.577Z,17.14
2019-04-22T07:11:11.449Z,17.29
2019-04-22T07:12:11.663Z,17.26
2019-04-22T07:13:23.575Z,17.06
2019-04-22T07:14:30.196Z,17.29
2019-04-22T07:15:36.470Z,17.33
2019-04-22T07:16:20.310Z,17.44
2019-04-22T07:17:14.281Z,17.64
2019-04-22T07:18:27.466Z,17.97
2019-04-22T07:19:20.586Z,17.64
2019-04-22T07:20:17.780Z,17.42
2019-04-22T07:21:12.608Z,17.65
2019-04-22T07:23:22.605Z,17.64
2019-04-22T07:24:43.829Z,17.56
2019-04-22T07:25:17.773Z,17.15
2019-04-22T07:26:15.723Z,16.72
2019-04-22T07:27:14.299Z,16.33
2019-04-22T07:28:17.690Z,16.16
2019-04-22T07:29:12.070Z,16.39
2019-04-22T07:31:17.363Z,16.13
2019-04-22T07:32:17.478Z,16.00
2019-04-22T07:33:31.261Z,15.94
2019-04-22T07:34:24.887Z,15.77
2019-04-22T07:35:22.575Z,15.27
2019-04-22T07:37:29.680Z,14.92
2019-04-22T07:38:18.730Z,14.68
2019-04-22T07:39:15.596Z,14.65
2019-04-22T07:40:19.132Z,14.70
2019-04-22T07:41:17.254Z,14.81
2019-04-22T07:42:20.351Z,14.86
2019-04-22T07:43:19.676Z,14.77
2019-04-22T07:44:31.222Z,14.81
2019-04-22T07:45:23.719Z,14.88
2019-04-22T07:46:16.362Z,14.82
2019-04-22T07:47:18.475Z,14.70
2019-04-22T07:48:28.001Z,14.62
2019-04-22T07:49:22.030Z,14.59
2019-04-22T07:50:25.342Z,14.72
2019-04-22T07:51:13.025Z,14.72
2019-04-22T07:53:10.357Z,14.88
2019-04-22T07:54:13.360Z,14.88
2019-04-22T07:55:07.135Z,14.96
2019-04-22T07:56:16.263Z,15.00
2019-04-22T07:57:20.149Z,14.97
2019-04-22T07:59:15.334Z,14.99
2019-04-22T08:00:16.063Z,15.00
2019-04-22T08:01:15.406Z,14.88
2019-04-22T08:02:16.037Z,14.92
2019-04-22T08:03:16.567Z,14.91
2019-04-22T08:05:12.935Z,15.25
2019-04-22T08:07:23.840Z,15.03
2019-04-22T08:08:24.881Z,15.04
2019-04-22T08:09:13.796Z,15.04
2019-04-22T08:11:30.956Z,15.09
2019-04-22T08:12:12.066Z,15.04
2019-04-22T08:13:12.125Z,15.14
2019-04-22T08:14:14.227Z,15.29
2019-04-22T08:15:12.975Z,15.28
2019-04-22T08:16:10.114Z,15.18
2019-04-22T08:17:38.714Z,14.99
2019-04-22T08:18:31.253Z,14.89
2019-04-22T08:19:18.546Z,14.86
2019-04-22T08:20:19.267Z,15.09
2019-04-22T08:21:13.695Z,15.03
2019-04-22T08:22:10.375Z,15.06
2019-04-22T08:24:28.625Z,15.28
2019-04-22T08:25:10.156Z,15.46
2019-04-22T08:26:11.418Z,15.59
2019-04-22T08:27:11.853Z,15.68
2019-04-22T08:28:10.181Z,15.75
2019-04-22T08:29:17.487Z,15.79
2019-04-22T08:30:14.719Z,15.83
2019-04-22T08:31:14.602Z,15.90
2019-04-22T08:32:28.584Z,15.80
2019-04-22T08:33:15.995Z,15.76
2019-04-22T08:34:14.170Z,15.52
2019-04-22T08:35:18.506Z,15.46
2019-04-22T08:36:23.347Z,15.47
2019-04-22T08:38:11.883Z,15.51
2019-04-22T08:39:17.103Z,15.64
2019-04-22T08:40:17.015Z,15.79
2019-04-22T08:41:20.890Z,15.90
2019-04-22T08:42:23.565Z,15.84
2019-04-22T08:43:14.082Z,15.90
2019-04-22T08:44:07.985Z,16.08
2019-04-22T08:46:17.396Z,16.01
2019-04-22T08:48:09.649Z,16.01
2019-04-22T08:49:05.663Z,16.21
2019-04-22T08:50:16.577Z,16.20
2019-04-22T08:51:10.917Z,16.35
2019-04-22T08:52:11.051Z,16.54
2019-04-22T08:53:10.980Z,16.61
2019-04-22T08:55:15.868Z,17.08
2019-04-22T08:56:21.983Z,17.02
2019-04-22T08:57:15.988Z,17.38
2019-04-22T08:59:15.042Z,17.15
2019-04-22T09:00:08.396Z,17.38
2019-04-22T09:01:11.614Z,17.46
2019-04-22T09:02:12.106Z,17.60
2019-04-22T09:03:24.392Z,18.00
2019-04-22T09:05:20.641Z,18.37
2019-04-22T09:06:11.035Z,18.66
2019-04-22T09:09:06.542Z,18.75
2019-04-22T09:10:15.428Z,19.00
2019-04-22T09:11:13.159Z,19.24
2019-04-22T09:12:12.638Z,19.55
2019-04-22T09:14:09.750Z,19.27
2019-04-22T09:15:08.190Z,18.93
2019-04-22T09:16:16.640Z,18.80
2019-04-22T09:17:11.408Z,18.74
2019-04-22T09:18:08.412Z,19.00
2019-04-22T09:19:08.252Z,18.75
2019-04-22T09:20:10.977Z,18.66
2019-04-22T09:21:15.307Z,18.35
2019-04-22T09:22:05.301Z,17.78
2019-04-22T09:23:09.672Z,17.46
2019-04-22T09:25:00.218Z,17.16
2019-04-22T09:26:13.337Z,16.90
2019-04-22T09:27:11.575Z,17.22
2019-04-22T09:28:05.337Z,17.68
2019-04-22T09:29:06.229Z,18.04
2019-04-22T09:30:09.837Z,18.58
2019-04-22T09:31:08.878Z,18.83
2019-04-22T09:32:14.631Z,18.56
2019-04-22T09:33:07.833Z,18.88
2019-04-22T09:34:04.378Z,19.33
2019-04-22T09:35:03.356Z,19.15
2019-04-22T09:36:13.003Z,19.36
2019-04-22T09:37:12.020Z,19.82
2019-04-22T09:38:23.325Z,20.43
2019-04-22T09:39:02.926Z,20.03
2019-04-22T09:40:12.136Z,19.77
2019-04-22T09:41:06.479Z,19.71
2019-04-22T09:42:05.130Z,20.06
2019-04-22T09:43:05.904Z,20.59
2019-04-22T09:44:05.650Z,21.15
2019-04-22T09:44:59.210Z,20.47
2019-04-22T09:46:08.608Z,20.41
2019-04-22T09:47:07.997Z,20.65
2019-04-22T09:48:08.784Z,20.32
2019-04-22T09:49:06.938Z,20.44
2019-04-22T09:50:01.430Z,21.07
2019-04-22T09:51:03.617Z,20.43
2019-04-22T09:52:08.549Z,19.79
2019-04-22T09:53:02.039Z,19.64
2019-04-22T09:54:06.013Z,19.51
2019-04-22T09:55:10.991Z,19.63
2019-04-22T09:56:03.831Z,19.55
2019-04-22T09:57:01.505Z,19.74
2019-04-22T09:58:03.151Z,19.55
2019-04-22T09:59:05.649Z,19.89
2019-04-22T10:00:02.275Z,19.77
2019-04-22T10:01:03.010Z,19.91
2019-04-22T10:02:13.319Z,20.03
2019-04-22T10:04:00.813Z,20.41
2019-04-22T10:06:11.915Z,20.22
2019-04-22T10:06:59.613Z,19.84
2019-04-22T10:08:06.692Z,19.73
2019-04-22T10:11:06.179Z,21.29
2019-04-22T10:12:02.064Z,21.58
2019-04-22T10:13:08.564Z,21.11
2019-04-22T10:13:58.707Z,21.14
2019-04-22T10:14:59.927Z,20.77
2019-04-22T10:16:07.675Z,20.31
2019-04-22T10:17:04.679Z,20.14
2019-04-22T10:18:04.866Z,20.40
2019-04-22T10:20:01.135Z,20.70
2019-04-22T10:21:03.616Z,20.70
2019-04-22T10:22:01.700Z,20.84
2019-04-22T10:22:57.453Z,20.65
2019-04-22T10:24:07.756Z,20.44
2019-04-22T10:25:01.715Z,20.92
2019-04-22T10:26:02.551Z,21.14
2019-04-22T10:26:57.097Z,20.93
2019-04-22T10:28:07.040Z,20.55
2019-04-22T10:29:59.885Z,20.74
2019-04-22T10:30:52.202Z,21.12
2019-04-22T10:32:00.852Z,20.80
2019-04-22T10:32:56.274Z,20.84
2019-04-22T10:33:49.665Z,21.46
2019-04-22T10:34:42.813Z,21.79
2019-04-22T10:35:34.514Z,21.09
2019-04-22T10:36:35.415Z,20.92
2019-04-22T10:37:34.290Z,21.00
2019-04-22T10:38:34.616Z,21.43
2019-04-22T10:39:43.219Z,21.77
2019-04-22T10:40:34.558Z,21.80
2019-04-22T10:41:34.597Z,22.35
2019-04-22T10:42:33.598Z,22.18
2019-04-22T10:43:33.145Z,21.83
2019-04-22T10:44:33.240Z,21.42
2019-04-22T10:45:34.372Z,21.69
2019-04-22T10:46:33.995Z,21.09
2019-04-22T10:47:34.074Z,21.12
2019-04-22T10:48:32.704Z,20.90
2019-04-22T10:49:34.005Z,20.32
2019-04-22T10:50:34.788Z,20.34
2019-04-22T10:51:32.748Z,20.48
2019-04-22T10:52:32.415Z,20.36
2019-04-22T10:53:33.302Z,20.07
2019-04-22T10:54:33.505Z,20.04
2019-04-22T10:55:32.078Z,20.26
2019-04-22T10:56:32.763Z,20.26
2019-04-22T10:57:31.932Z,20.04
2019-04-22T10:58:32.836Z,20.21
2019-04-22T10:59:32.308Z,20.00
2019-04-22T11:00:31.678Z,20.10
2019-04-22T11:01:31.766Z,20.36
2019-04-22T11:02:31.790Z,20.10
2019-04-22T11:03:31.349Z,20.04
2019-04-22T11:04:32.238Z,19.58
2019-04-22T11:05:32.317Z,19.62
2019-04-22T11:06:33.691Z,19.82
2019-04-22T11:07:35.966Z,19.91
2019-04-22T11:08:38.909Z,19.69
2019-04-22T11:09:31.050Z,19.88
2019-04-22T11:10:44.598Z,20.04
2019-04-22T11:11:43.935Z,20.09
2019-04-22T11:12:34.148Z,20.07
2019-04-22T11:13:31.613Z,19.84
2019-04-22T11:14:30.735Z,19.63
2019-04-22T11:15:30.732Z,19.64
2019-04-22T11:16:30.148Z,19.67
2019-04-22T11:17:31.427Z,19.33
2019-04-22T11:18:29.960Z,18.96
2019-04-22T11:19:29.938Z,18.84
2019-04-22T11:20:29.774Z,18.65
2019-04-22T11:21:29.683Z,18.71
2019-04-22T11:22:33.297Z,18.81
2019-04-22T11:23:29.483Z,18.68
2019-04-22T11:24:30.534Z,18.50
2019-04-22T11:25:29.921Z,18.18
2019-04-22T11:26:29.953Z,18.28
2019-04-22T11:27:30.558Z,18.15
2019-04-22T11:28:29.656Z,18.23
2019-04-22T11:29:29.899Z,18.37
2019-04-22T11:30:30.197Z,18.40
2019-04-22T11:31:28.752Z,18.25
2019-04-22T11:32:28.679Z,18.20
2019-04-22T11:33:28.529Z,18.25
2019-04-22T11:34:29.058Z,18.15
2019-04-22T11:35:29.578Z,18.10
2019-04-22T11:36:30.579Z,17.98
2019-04-22T11:37:28.276Z,18.08
2019-04-22T11:38:28.844Z,18.10
2019-04-22T11:39:30.776Z,18.28
2019-04-22T11:40:34.874Z,18.41
2019-04-22T11:41:27.899Z,18.33
2019-04-22T11:42:28.138Z,18.13
2019-04-22T11:43:28.466Z,18.26
2019-04-22T11:44:27.645Z,18.29
2019-04-22T11:45:27.371Z,18.23
2019-04-22T11:46:27.344Z,18.25
2019-04-22T11:47:27.479Z,18.40
2019-04-22T11:48:27.144Z,18.20
2019-04-22T11:49:27.896Z,18.04
2019-04-22T11:50:27.973Z,18.00
2019-04-22T11:51:27.581Z,18.18
2019-04-22T11:52:26.908Z,18.38
2019-04-22T11:53:27.011Z,18.37
2019-04-22T11:54:26.504Z,18.43
2019-04-22T11:55:26.839Z,18.26
2019-04-22T11:56:27.143Z,18.25
2019-04-22T11:57:26.205Z,18.28
2019-04-22T11:58:26.590Z,18.26
2019-04-22T11:59:26.830Z,18.35
2019-04-22T12:00:27.021Z,18.49
2019-04-22T12:01:26.672Z,18.33
2019-04-22T12:02:27.064Z,18.34
2019-04-22T12:03:26.889Z,18.43
2019-04-22T12:04:25.732Z,18.47
2019-04-22T12:05:25.975Z,18.41
2019-04-22T12:06:26.255Z,18.49
2019-04-22T12:07:26.610Z,18.49
2019-04-22T12:08:25.204Z,18.58
2019-04-22T12:09:25.695Z,18.60
2019-04-22T12:10:33.188Z,18.66
2019-04-22T12:11:26.160Z,18.75
2019-04-22T12:12:25.578Z,18.75
2019-04-22T12:13:26.053Z,18.74
2019-04-22T12:14:25.625Z,18.65
2019-04-22T12:15:24.735Z,18.63
2019-04-22T12:16:25.335Z,18.63
2019-04-22T12:17:24.359Z,18.65
2019-04-22T12:18:24.952Z,18.63
2019-04-22T12:19:25.044Z,18.73
2019-04-22T12:20:25.390Z,18.90
2019-04-22T12:21:23.861Z,18.90
2019-04-22T12:22:24.988Z,18.86
2019-04-22T12:23:25.051Z,18.66
2019-04-22T12:24:24.967Z,18.62
2019-04-22T12:25:35.083Z,18.60
2019-04-22T12:26:25.104Z,18.47
2019-04-22T12:27:24.795Z,18.47
2019-04-22T12:28:23.220Z,18.56
2019-04-22T12:29:23.081Z,18.65
2019-04-22T12:30:23.677Z,18.70
2019-04-22T12:31:23.764Z,18.70
2019-04-22T12:32:23.279Z,18.70
2019-04-22T12:33:23.499Z,18.88
2019-04-22T12:34:23.597Z,18.74
2019-04-22T12:35:22.496Z,18.81
2019-04-22T12:36:22.585Z,18.78
2019-04-22T12:37:30.711Z,18.90
2019-04-22T12:38:23.966Z,18.70
2019-04-22T12:39:23.226Z,18.71
2019-04-22T12:40:33.868Z,18.83
2019-04-22T12:41:21.910Z,19.04
2019-04-22T12:42:21.815Z,19.07
2019-04-22T12:43:22.664Z,18.99
2019-04-22T12:44:22.160Z,18.89
2019-04-22T12:45:22.445Z,18.74
2019-04-22T12:46:21.424Z,18.86
2019-04-22T12:47:22.195Z,19.00
2019-04-22T12:48:21.399Z,19.04
2019-04-22T12:49:22.439Z,19.09
2019-04-22T12:50:27.269Z,19.09
2019-04-22T12:51:21.021Z,19.02
2019-04-22T12:52:26.600Z,19.11
2019-04-22T12:53:24.310Z,19.00
2019-04-22T12:54:21.471Z,19.00
2019-04-22T12:55:21.690Z,19.09
2019-04-22T12:56:21.708Z,19.16
2019-04-22T12:57:20.662Z,19.21
2019-04-22T12:58:20.339Z,19.19
2019-04-22T12:59:21.436Z,19.16
2019-04-22T13:00:20.595Z,19.14
2019-04-22T13:01:21.135Z,18.98
2019-04-22T13:02:20.913Z,18.83
2019-04-22T13:03:20.376Z,18.74
2019-04-22T13:04:21.285Z,18.86
2019-04-22T13:05:20.109Z,18.88
2019-04-22T13:06:19.540Z,18.90
2019-04-22T13:07:19.942Z,18.71
2019-04-22T13:08:19.998Z,18.71
2019-04-22T13:09:19.528Z,18.74
2019-04-22T13:10:20.162Z,18.71
2019-04-22T13:11:23.940Z,18.74
2019-04-22T13:12:19.342Z,18.75
2019-04-22T13:13:18.887Z,18.99
2019-04-22T13:14:19.169Z,19.02
2019-04-22T13:15:19.981Z,19.16
2019-04-22T13:16:18.499Z,19.08
2019-04-22T13:17:18.955Z,19.04
2019-04-22T13:18:28.733Z,18.93
2019-04-22T13:19:20.803Z,18.86
2019-04-22T13:20:20.077Z,18.83
2019-04-22T13:21:18.570Z,18.75
2019-04-22T13:22:19.055Z,18.75
2019-04-22T13:23:18.045Z,18.88
2019-04-22T13:24:19.816Z,18.98
2019-04-22T13:25:17.694Z,19.15
2019-04-22T13:26:18.877Z,19.36
2019-04-22T13:27:17.426Z,19.39
2019-04-22T13:28:18.906Z,19.41
2019-04-22T13:29:17.247Z,19.40
2019-04-22T13:30:18.475Z,19.22
2019-04-22T13:31:19.391Z,19.19
2019-04-22T13:32:16.946Z,19.37
2019-04-22T13:33:16.990Z,19.40
2019-04-22T13:34:21.596Z,19.40
2019-04-22T13:35:18.532Z,19.21
2019-04-22T13:36:19.047Z,19.44
2019-04-22T13:37:16.994Z,19.54
2019-04-22T13:38:17.343Z,19.54
2019-04-22T13:39:16.886Z,19.45
2019-04-22T13:40:16.924Z,19.37
2019-04-22T13:41:28.265Z,19.36
2019-04-22T13:42:19.998Z,19.26
2019-04-22T13:43:16.761Z,19.19
2019-04-22T13:44:16.705Z,19.14
2019-04-22T13:45:15.808Z,19.27
2019-04-22T13:46:16.747Z,19.18
2019-04-22T13:47:32.463Z,19.16
2019-04-22T13:48:35.869Z,19.18
2019-04-22T13:49:54.037Z,19.30
2019-04-22T13:51:45.161Z,19.22
2019-04-22T13:52:48.649Z,19.19
2019-04-22T13:54:01.902Z,19.16
2019-04-22T13:55:50.270Z,19.41
2019-04-22T13:56:37.418Z,19.37
2019-04-22T13:57:37.086Z,19.31
2019-04-22T13:58:26.756Z,19.37
2019-04-22T13:59:22.998Z,19.49
2019-04-22T14:00:14.267Z,19.41
2019-04-22T14:01:14.611Z,19.36
2019-04-22T14:02:14.651Z,19.33
2019-04-22T14:03:13.929Z,19.22
2019-04-22T14:04:14.480Z,19.31
2019-04-22T14:05:14.841Z,19.39
2019-04-22T14:06:13.648Z,19.16
2019-04-22T14:07:14.631Z,19.21
2019-04-22T14:08:14.567Z,19.12
2019-04-22T14:09:13.716Z,19.15
2019-04-22T14:10:14.216Z,19.15
2019-04-22T14:11:23.309Z,18.99
2019-04-22T14:12:15.436Z,18.96
2019-04-22T14:13:13.932Z,19.11
2019-04-22T14:14:12.852Z,19.26
2019-04-22T14:15:13.828Z,19.18
2019-04-22T14:16:13.275Z,19.29
2019-04-22T14:17:13.184Z,19.24
2019-04-22T14:18:12.854Z,19.11
2019-04-22T14:19:13.928Z,18.92
2019-04-22T14:20:13.144Z,18.99
2019-04-22T14:21:12.498Z,19.02
2019-04-22T14:22:13.678Z,19.15
2019-04-22T14:23:13.652Z,19.00
2019-04-22T14:24:13.773Z,18.96
2019-04-22T14:25:12.657Z,18.99
2019-04-22T14:26:13.223Z,19.04
2019-04-22T14:27:20.734Z,19.19
2019-04-22T14:28:16.910Z,19.04
2019-04-22T14:29:11.490Z,18.81
2019-04-22T14:30:12.562Z,18.73
2019-04-22T14:31:12.545Z,18.80
2019-04-22T14:32:17.077Z,18.92
2019-04-22T14:33:12.164Z,18.98
2019-04-22T14:34:12.017Z,18.95
2019-04-22T14:35:11.209Z,18.73
2019-04-22T14:36:11.648Z,18.75
2019-04-22T14:37:11.880Z,18.73
2019-04-22T14:38:12.042Z,18.75
2019-04-22T14:39:10.418Z,18.83
2019-04-22T14:40:11.957Z,18.95